createdAt,value
2022-11-20T00:00:26.879Z,1.20
2022-11-20T00:02:54.507Z,1.10
2022-11-20T00:05:22.753Z,1.13
2022-11-20T00:07:51.667Z,1.10
2022-11-20T00:10:19.221Z,1.10
2022-11-20T00:12:46.784Z,1.10
2022-11-20T00:15:14.392Z,1.17
2022-11-20T00:17:41.979Z,1.10
2022-11-20T00:20:10.591Z,1.10
2022-11-20T00:22:38.209Z,1.10
2022-11-20T00:25:07.327Z,1.10
2022-11-20T00:27:35.012Z,1.00
2022-11-20T00:30:02.595Z,1.17
2022-11-20T00:32:30.224Z,1.20
2022-11-20T00:34:57.916Z,1.10
2022-11-20T00:37:25.545Z,1.00
2022-11-20T00:39:54.249Z,1.20
2022-11-20T00:42:23.244Z,1.10
2022-11-20T00:44:50.867Z,1.10
2022-11-20T00:47:18.524Z,1.07
2022-11-20T00:49:46.159Z,1.10
2022-11-20T00:52:13.724Z,1.20
2022-11-20T00:54:41.323Z,1.00
2022-11-20T00:57:08.918Z,1.00
2022-11-20T00:59:37.788Z,0.93
2022-11-20T01:02:05.415Z,1.10
2022-11-20T01:04:33.078Z,1.13
2022-11-20T01:07:00.824Z,1.03
2022-11-20T01:09:28.465Z,0.90
2022-11-20T01:11:57.188Z,1.10
2022-11-20T01:14:24.898Z,1.20
2022-11-20T01:16:53.864Z,1.20
2022-11-20T01:19:22.832Z,1.00
2022-11-20T01:21:52.321Z,1.00
2022-11-20T01:24:20.960Z,1.00
2022-11-20T01:26:49.283Z,1.00
2022-11-20T01:29:18.230Z,1.07
2022-11-20T01:31:46.121Z,1.00
2022-11-20T01:34:16.115Z,1.10
2022-11-20T01:36:45.369Z,1.10
2022-11-20T01:39:14.088Z,1.40
2022-11-20T01:41:50.898Z,1.40
2022-11-20T01:44:20.013Z,1.20
2022-11-20T01:46:53.779Z,1.20
2022-11-20T01:49:26.201Z,1.20
2022-11-20T01:51:56.321Z,1.30
2022-11-20T01:54:25.651Z,1.20
2022-11-20T01:56:56.314Z,1.30
2022-11-20T01:59:25.448Z,1.20
2022-11-20T02:01:53.034Z,1.00
2022-11-20T02:04:21.333Z,1.20
2022-11-20T02:06:51.630Z,1.13
2022-11-20T02:09:19.765Z,1.10
2022-11-20T02:11:47.867Z,1.17
2022-11-20T02:14:15.036Z,1.27
2022-11-20T02:16:46.867Z,0.90
2022-11-20T02:19:19.039Z,1.10
2022-11-20T02:21:49.935Z,1.33
2022-11-20T02:24:19.689Z,1.20
2022-11-20T02:26:49.291Z,1.30
2022-11-20T02:29:19.089Z,1.10
2022-11-20T02:31:47.067Z,1.47
2022-11-20T02:34:14.619Z,1.13
2022-11-20T02:36:42.832Z,1.23
2022-11-20T02:39:11.967Z,1.37
2022-11-20T02:41:40.933Z,1.10
2022-11-20T02:44:08.512Z,1.10
2022-11-20T02:46:36.150Z,1.10
2022-11-20T02:49:04.574Z,1.20
2022-11-20T02:51:32.686Z,1.30
2022-11-20T02:54:00.597Z,1.20
2022-11-20T02:56:28.579Z,1.27
2022-11-20T02:58:57.492Z,1.20
2022-11-20T03:01:25.185Z,1.20
2022-11-20T03:03:55.399Z,1.67
2022-11-20T03:06:23.490Z,1.87
2022-11-20T03:08:51.097Z,1.90
2022-11-20T03:11:18.892Z,1.73
2022-11-20T03:13:46.473Z,1.97
2022-11-20T03:16:16.657Z,1.57
2022-11-20T03:18:44.489Z,1.80
2022-11-20T03:21:12.941Z,1.77
2022-11-20T03:23:40.551Z,1.70
2022-11-20T03:26:09.903Z,1.80
2022-11-20T03:28:37.503Z,1.60
2022-11-20T03:31:09.122Z,1.57
2022-11-20T03:33:38.021Z,1.67
2022-11-20T03:36:06.417Z,1.50
2022-11-20T03:38:34.045Z,1.63
2022-11-20T03:41:02.718Z,2.00
2022-11-20T03:43:30.764Z,1.87
2022-11-20T03:46:16.894Z,1.83
2022-11-20T03:48:51.176Z,1.83
2022-11-20T03:51:20.869Z,1.73
2022-11-20T03:53:49.288Z,1.90
2022-11-20T03:56:18.173Z,1.73
2022-11-20T03:58:45.797Z,1.37
2022-11-20T04:01:14.862Z,1.80
2022-11-20T04:03:43.238Z,1.70
2022-11-20T04:06:13.467Z,1.63
2022-11-20T04:08:41.158Z,1.57
2022-11-20T04:11:10.584Z,1.70
2022-11-20T04:13:38.379Z,1.80
2022-11-20T04:16:06.502Z,1.83
2022-11-20T04:18:34.437Z,2.17
2022-11-20T04:21:02.383Z,1.80
2022-11-20T04:23:31.485Z,2.10
2022-11-20T04:26:03.057Z,1.80
2022-11-20T04:28:30.750Z,1.80
2022-11-20T04:31:03.718Z,1.80
2022-11-20T04:33:34.291Z,2.10
2022-11-20T04:36:03.809Z,2.00
2022-11-20T04:38:32.961Z,1.90
2022-11-20T04:41:01.137Z,2.07
2022-11-20T04:43:29.664Z,2.23
2022-11-20T04:45:58.012Z,2.50
2022-11-20T04:48:26.704Z,2.20
2022-11-20T04:50:54.808Z,2.00
2022-11-20T04:53:22.945Z,2.37
2022-11-20T04:55:52.099Z,1.90
2022-11-20T04:58:19.760Z,1.70
2022-11-20T05:00:47.347Z,1.80
2022-11-20T05:03:14.955Z,2.03
2022-11-20T05:05:42.544Z,3.80
2022-11-20T05:08:10.275Z,2.87
2022-11-20T05:10:37.860Z,2.90
2022-11-20T05:13:06.805Z,3.03
2022-11-20T05:15:34.490Z,2.60
2022-11-20T05:18:02.180Z,1.90
2022-11-20T05:20:29.945Z,1.97
2022-11-20T05:22:58.466Z,2.30
2022-11-20T05:25:26.318Z,1.77
2022-11-20T05:27:54.724Z,1.80
2022-11-20T05:30:23.628Z,1.90
2022-11-20T05:32:51.198Z,1.77
2022-11-20T05:35:18.813Z,2.10
2022-11-20T05:37:46.417Z,2.07
2022-11-20T05:40:14.269Z,1.77
2022-11-20T05:42:44.518Z,1.77
2022-11-20T05:45:12.116Z,2.20
2022-11-20T05:47:41.081Z,1.67
2022-11-20T05:50:08.958Z,1.87
2022-11-20T05:52:36.574Z,1.73
2022-11-20T05:55:04.321Z,1.60
2022-11-20T05:57:32.713Z,1.53
2022-11-20T06:00:00.443Z,1.40
2022-11-20T06:02:28.207Z,1.60
2022-11-20T06:04:57.062Z,1.40
2022-11-20T06:10:10.110Z,1.60
2022-11-20T06:12:37.682Z,1.50
2022-11-20T06:15:05.515Z,1.60
2022-11-20T06:17:33.257Z,1.77
2022-11-20T06:20:02.162Z,1.30
2022-11-20T06:22:30.537Z,1.50
2022-11-20T06:24:58.126Z,1.33
2022-11-20T06:27:26.220Z,1.30
2022-11-20T06:29:53.849Z,1.43
2022-11-20T06:32:21.447Z,1.33
2022-11-20T06:34:49.065Z,1.17
2022-11-20T06:37:17.950Z,1.37
2022-11-20T06:39:45.528Z,1.40
2022-11-20T06:42:13.143Z,1.50
2022-11-20T06:44:40.771Z,1.70
2022-11-20T06:47:08.380Z,1.70
2022-11-20T06:49:37.926Z,1.50
2022-11-20T06:52:05.654Z,1.10
2022-11-20T06:54:34.529Z,1.30
2022-11-20T06:57:02.122Z,1.50
2022-11-20T06:59:29.849Z,1.37
2022-11-20T07:01:57.468Z,1.33
2022-11-20T07:04:25.096Z,1.13
2022-11-20T07:06:52.693Z,1.40
2022-11-20T07:09:20.313Z,1.43
2022-11-20T07:11:49.131Z,1.50
2022-11-20T07:14:16.788Z,1.30
2022-11-20T07:16:44.411Z,1.30
2022-11-20T07:19:12.019Z,1.40
2022-11-20T07:21:57.381Z,1.30
2022-11-20T07:24:25.429Z,1.30
2022-11-20T07:26:54.390Z,1.33
2022-11-20T07:29:22.180Z,1.40
2022-11-20T07:31:49.868Z,1.20
2022-11-20T07:34:17.518Z,1.50
2022-11-20T07:36:45.171Z,1.20
2022-11-20T07:39:12.766Z,1.30
2022-11-20T07:41:40.331Z,1.30
2022-11-20T07:44:09.324Z,1.70
2022-11-20T07:46:37.225Z,1.37
2022-11-20T07:49:04.896Z,1.43
2022-11-20T07:51:32.534Z,1.20
2022-11-20T07:54:00.137Z,1.30
2022-11-20T07:56:27.806Z,1.20
2022-11-20T07:58:55.795Z,1.57
2022-11-20T08:01:24.743Z,1.53
2022-11-20T08:03:52.419Z,1.53
2022-11-20T08:06:21.072Z,1.30
2022-11-20T08:08:48.711Z,1.50
2022-11-20T08:11:25.805Z,1.57
2022-11-20T08:14:04.526Z,1.40
2022-11-20T08:16:33.520Z,1.60
2022-11-20T08:19:01.193Z,1.27
2022-11-20T08:21:29.599Z,1.43
2022-11-20T08:23:59.594Z,1.67
2022-11-20T08:26:27.317Z,1.87
2022-11-20T08:28:55.332Z,1.63
2022-11-20T08:31:23.400Z,1.93
2022-11-20T08:33:52.521Z,1.30
2022-11-20T08:36:22.288Z,1.43
2022-11-20T08:38:50.270Z,1.50
2022-11-20T08:41:26.508Z,1.50
2022-11-20T08:43:55.772Z,1.20
2022-11-20T08:46:23.786Z,1.60
2022-11-20T08:48:52.730Z,1.90
2022-11-20T08:51:20.575Z,1.90
2022-11-20T08:53:49.429Z,1.50
2022-11-20T08:56:17.349Z,1.90
2022-11-20T08:59:10.324Z,2.40
2022-11-20T09:01:32.714Z,2.00
2022-11-20T09:04:01.735Z,2.30
2022-11-20T09:06:29.393Z,2.30
2022-11-20T09:08:59.709Z,2.00
2022-11-20T09:11:31.236Z,1.60
2022-11-20T09:13:58.910Z,1.77
2022-11-20T09:16:26.528Z,1.70
2022-11-20T09:19:13.479Z,1.87
2022-11-20T09:21:43.135Z,1.90
2022-11-20T09:24:10.811Z,1.80
2022-11-20T09:26:38.445Z,1.37
2022-11-20T09:29:06.072Z,1.53
2022-11-20T09:31:33.875Z,1.37
2022-11-20T09:34:01.499Z,1.27
2022-11-20T09:36:29.320Z,1.30
2022-11-20T09:38:58.729Z,1.40
2022-11-20T09:41:37.274Z,1.43
2022-11-20T09:44:09.436Z,1.83
2022-11-20T09:46:41.742Z,1.30
2022-11-20T09:49:18.278Z,1.70
2022-11-20T09:51:48.465Z,1.53
2022-11-20T09:54:19.652Z,1.40
2022-11-20T09:56:49.425Z,1.20
2022-11-20T09:59:25.570Z,1.40
2022-11-20T10:01:53.318Z,1.43
2022-11-20T10:04:22.162Z,1.40
2022-11-20T10:07:17.272Z,1.27
2022-11-20T10:09:43.930Z,1.40
2022-11-20T10:12:16.244Z,1.50
2022-11-20T10:14:51.455Z,1.10
2022-11-20T10:17:23.697Z,0.83
2022-11-20T10:19:58.600Z,1.10
2022-11-20T10:22:35.678Z,1.23
2022-11-20T10:25:07.767Z,1.17
2022-11-20T10:27:41.529Z,1.37
2022-11-20T10:30:10.771Z,1.30
2022-11-20T10:32:39.902Z,1.30
2022-11-20T10:35:12.207Z,1.70
2022-11-20T10:37:43.085Z,1.58
2022-11-20T10:40:29.590Z,1.30
2022-11-20T10:43:01.497Z,1.30
2022-11-20T10:45:35.319Z,1.10
2022-11-20T10:48:11.219Z,1.40
2022-11-20T10:50:42.166Z,1.23
2022-11-20T10:53:15.183Z,1.77
2022-11-20T10:55:47.005Z,1.33
2022-11-20T10:58:18.809Z,1.20
2022-11-20T11:00:46.577Z,1.20
2022-11-20T11:03:21.854Z,1.25
2022-11-20T11:05:50.813Z,1.20
2022-11-20T11:08:19.484Z,1.20
2022-11-20T11:10:49.949Z,1.20
2022-11-20T11:13:22.693Z,1.20
2022-11-20T11:15:50.446Z,1.08
2022-11-20T11:18:25.890Z,0.93
2022-11-20T11:20:54.772Z,1.10
2022-11-20T11:23:37.221Z,1.40
2022-11-20T11:26:06.070Z,1.30
2022-11-20T11:28:36.765Z,1.55
2022-11-20T11:31:04.383Z,1.30
2022-11-20T11:33:34.503Z,1.20
2022-11-20T11:36:03.462Z,1.45
2022-11-20T11:38:32.764Z,1.42
2022-11-20T11:41:00.903Z,1.40
2022-11-20T11:43:40.790Z,1.35
2022-11-20T11:46:22.207Z,1.38
2022-11-20T11:48:56.621Z,1.20
2022-11-20T11:51:24.305Z,1.05
2022-11-20T11:53:52.200Z,1.23
2022-11-20T11:56:19.837Z,1.20
2022-11-20T11:58:48.172Z,0.90
2022-11-20T12:01:24.047Z,0.80
2022-11-20T12:03:57.499Z,1.00
2022-11-20T12:06:25.375Z,1.05
2022-11-20T12:08:55.646Z,1.30
2022-11-20T12:11:26.396Z,1.00
2022-11-20T12:13:55.943Z,0.90
2022-11-20T12:16:24.880Z,0.90
2022-11-20T12:18:53.661Z,0.85
2022-11-20T12:21:22.293Z,1.00
2022-11-20T12:23:57.118Z,1.00
2022-11-20T12:26:37.027Z,0.95
2022-11-20T12:29:12.322Z,0.80
2022-11-20T12:31:45.850Z,0.98
2022-11-20T12:34:20.166Z,1.00
2022-11-20T12:36:52.925Z,0.90
2022-11-20T12:39:29.256Z,0.90
2022-11-20T12:42:15.750Z,0.73
2022-11-20T12:44:57.963Z,0.80
2022-11-20T12:47:33.663Z,0.70
2022-11-20T12:50:04.253Z,0.55
2022-11-20T12:52:40.049Z,0.90
2022-11-20T12:55:15.221Z,0.80
2022-11-20T12:57:48.384Z,0.60
2022-11-20T13:00:16.985Z,0.80
2022-11-20T13:02:58.624Z,0.95
2022-11-20T13:05:29.340Z,0.98
2022-11-20T13:07:57.438Z,0.80
2022-11-20T13:10:37.427Z,0.70
2022-11-20T13:13:10.735Z,0.50
2022-11-20T13:15:44.178Z,0.70
2022-11-20T13:18:13.570Z,0.63
2022-11-20T13:20:44.058Z,0.68
2022-11-20T13:23:12.052Z,0.70
2022-11-20T13:25:40.624Z,0.60
2022-11-20T13:28:23.089Z,0.70
2022-11-20T13:30:52.022Z,0.70
2022-11-20T13:33:27.530Z,0.60
2022-11-20T13:35:57.851Z,0.70
2022-11-20T13:38:27.692Z,0.70
2022-11-20T13:40:57.662Z,0.55
2022-11-20T13:43:29.465Z,0.65
2022-11-20T13:45:58.686Z,0.60
2022-11-20T13:48:28.537Z,0.60
2022-11-20T13:50:59.804Z,0.50
2022-11-20T13:53:35.041Z,0.60
2022-11-20T13:56:05.824Z,0.60
2022-11-20T13:58:42.416Z,0.60
2022-11-20T14:01:11.760Z,0.60
2022-11-20T14:06:30.032Z,0.50
2022-11-20T14:08:58.201Z,0.52
2022-11-20T14:11:26.852Z,0.65
2022-11-20T14:13:59.145Z,0.77
2022-11-20T14:16:28.502Z,0.70
2022-11-20T14:18:58.502Z,0.73
2022-11-20T14:21:27.330Z,0.70
2022-11-20T14:23:56.272Z,0.70
2022-11-20T14:26:23.864Z,0.65
2022-11-20T14:28:52.980Z,0.70
2022-11-20T14:31:24.904Z,0.90
2022-11-20T14:33:53.664Z,0.70
2022-11-20T14:36:24.309Z,1.10
2022-11-20T14:38:52.470Z,0.90
2022-11-20T14:41:21.805Z,0.93
2022-11-20T14:43:51.822Z,0.70
2022-11-20T14:46:19.632Z,0.80
2022-11-20T14:48:48.395Z,0.70
2022-11-20T14:51:27.919Z,0.88
2022-11-20T14:53:55.597Z,0.80
2022-11-20T14:56:23.596Z,0.70
2022-11-20T14:58:57.478Z,0.90
2022-11-20T15:01:28.360Z,0.90
2022-11-20T15:04:01.299Z,0.70
2022-11-20T15:06:30.512Z,0.90
2022-11-20T15:08:58.495Z,0.98
2022-11-20T15:11:29.553Z,0.90
2022-11-20T15:13:57.317Z,1.65
2022-11-20T15:16:25.488Z,1.00
2022-11-20T15:18:53.267Z,1.58
2022-11-20T15:21:21.732Z,1.27
2022-11-20T15:23:50.926Z,1.30
2022-11-20T15:26:22.451Z,1.10
2022-11-20T15:28:51.102Z,1.27
2022-11-20T15:31:19.978Z,1.33
2022-11-20T15:33:47.657Z,1.40
2022-11-20T15:36:15.366Z,1.53
2022-11-20T15:38:43.124Z,1.40
2022-11-20T15:41:12.353Z,1.23
2022-11-20T15:43:40.641Z,1.53
2022-11-20T15:46:10.976Z,2.37
2022-11-20T15:48:44.641Z,2.10
2022-11-20T15:51:23.257Z,1.30
2022-11-20T15:53:50.879Z,1.20
2022-11-20T15:56:19.843Z,1.10
2022-11-20T15:58:47.508Z,1.40
2022-11-20T16:01:16.203Z,1.70
2022-11-20T16:03:44.081Z,2.30
2022-11-20T16:06:11.848Z,1.77
2022-11-20T16:08:39.484Z,1.47
2022-11-20T16:11:07.205Z,1.30
2022-11-20T16:13:45.026Z,1.57
2022-11-20T16:16:19.813Z,1.30
2022-11-20T16:18:47.416Z,1.53
2022-11-20T16:21:15.084Z,1.57
2022-11-20T16:23:43.294Z,1.70
2022-11-20T16:26:11.689Z,1.70
2022-11-20T16:28:40.622Z,1.40
2022-11-20T16:31:12.373Z,1.30
2022-11-20T16:33:40.219Z,1.80
2022-11-20T16:36:09.858Z,1.60
2022-11-20T16:38:37.853Z,1.67
2022-11-20T16:41:06.124Z,1.67
2022-11-20T16:43:33.770Z,1.50
2022-11-20T16:46:05.335Z,1.63
2022-11-20T16:48:33.032Z,1.87
2022-11-20T16:51:00.799Z,1.93
2022-11-20T16:53:28.461Z,1.80
2022-11-20T16:55:56.157Z,1.73
2022-11-20T16:58:23.801Z,1.77
2022-11-20T17:00:52.003Z,1.63
2022-11-20T17:03:21.215Z,1.87
2022-11-20T17:05:48.915Z,1.90
2022-11-20T17:08:16.482Z,1.70
2022-11-20T17:10:44.370Z,1.83
2022-11-20T17:13:11.989Z,1.47
2022-11-20T17:15:39.636Z,1.80
2022-11-20T17:18:07.257Z,1.40
2022-11-20T17:20:36.196Z,1.30
2022-11-20T17:23:04.258Z,1.40
2022-11-20T17:25:33.273Z,1.20
2022-11-20T17:28:00.979Z,1.30
2022-11-20T17:30:28.810Z,1.40
2022-11-20T17:32:56.485Z,1.07
2022-11-20T17:35:24.086Z,1.30
2022-11-20T17:37:53.011Z,1.10
2022-11-20T17:40:25.903Z,1.20
2022-11-20T17:42:54.877Z,1.50
2022-11-20T17:45:22.497Z,1.40
2022-11-20T17:47:50.083Z,1.30
2022-11-20T17:50:17.740Z,1.40
2022-11-20T17:52:45.440Z,1.00
2022-11-20T17:55:14.377Z,1.40
2022-11-20T17:57:51.090Z,1.40
2022-11-20T18:00:19.037Z,1.77
2022-11-20T18:02:46.652Z,1.60
2022-11-20T18:05:14.625Z,1.40
2022-11-20T18:07:42.341Z,1.50
2022-11-20T18:10:10.566Z,1.70
2022-11-20T18:12:39.697Z,1.60
2022-11-20T18:15:07.565Z,1.50
2022-11-20T18:17:36.322Z,1.20
2022-11-20T18:20:27.931Z,1.43
2022-11-20T18:22:51.848Z,1.73
2022-11-20T18:25:19.495Z,1.40
2022-11-20T18:27:48.410Z,1.13
2022-11-20T18:30:16.106Z,1.30
2022-11-20T18:32:43.864Z,1.13
2022-11-20T18:35:11.516Z,1.50
2022-11-20T18:37:39.180Z,1.40
2022-11-20T18:40:07.327Z,1.27
2022-11-20T18:42:44.227Z,1.30
2022-11-20T18:45:13.288Z,1.30
2022-11-20T18:47:41.275Z,1.37
2022-11-20T18:50:10.031Z,1.30
2022-11-20T18:52:40.353Z,1.37
2022-11-20T18:55:08.519Z,1.30
2022-11-20T18:57:36.323Z,1.57
2022-11-20T19:00:09.380Z,1.00
2022-11-20T19:02:42.816Z,1.40
2022-11-20T19:05:10.795Z,1.40
2022-11-20T19:07:38.592Z,1.17
2022-11-20T19:10:06.710Z,1.30
2022-11-20T19:12:34.695Z,1.40
2022-11-20T19:15:02.337Z,1.40
2022-11-20T19:17:29.935Z,1.30
2022-11-20T19:20:00.138Z,1.20
2022-11-20T19:22:27.784Z,1.30
2022-11-20T19:24:55.470Z,1.70
2022-11-20T19:27:23.204Z,1.30
2022-11-20T19:29:50.897Z,1.50
2022-11-20T19:32:18.582Z,1.10
2022-11-20T19:34:46.235Z,1.30
2022-11-20T19:37:15.181Z,1.30
2022-11-20T19:39:42.811Z,1.30
2022-11-20T19:42:10.410Z,1.40
2022-11-20T19:44:38.016Z,1.13
2022-11-20T19:47:10.208Z,1.40
2022-11-20T19:49:41.729Z,1.10
2022-11-20T19:52:09.419Z,1.00
2022-11-20T19:54:38.428Z,1.20
2022-11-20T19:57:06.559Z,0.93
2022-11-20T19:59:34.264Z,1.30
2022-11-20T20:02:03.274Z,1.10
2022-11-20T20:04:31.286Z,1.00
2022-11-20T20:06:59.169Z,1.20
2022-11-20T20:09:27.584Z,1.30
2022-11-20T20:11:56.615Z,1.20
2022-11-20T20:14:24.319Z,1.30
2022-11-20T20:16:51.927Z,1.70
2022-11-20T20:19:19.512Z,1.40
2022-11-20T20:21:47.890Z,1.43
2022-11-20T20:24:15.507Z,1.70
2022-11-20T20:26:43.574Z,1.57
2022-11-20T20:29:12.617Z,1.50
2022-11-20T20:31:40.686Z,1.43
2022-11-20T20:34:08.422Z,1.53
2022-11-20T20:36:36.106Z,1.33
2022-11-20T20:39:04.373Z,1.27
2022-11-20T20:41:32.364Z,1.47
2022-11-20T20:44:10.818Z,1.50
2022-11-20T20:46:39.786Z,1.50
2022-11-20T20:49:07.583Z,1.60
2022-11-20T20:51:35.247Z,1.40
2022-11-20T20:54:03.109Z,1.53
2022-11-20T20:56:30.795Z,1.50
2022-11-20T20:58:58.684Z,1.27
2022-11-20T21:01:28.615Z,1.40
2022-11-20T21:03:58.254Z,1.10
2022-11-20T21:06:26.159Z,1.27
2022-11-20T21:08:55.809Z,1.20
2022-11-20T21:11:23.488Z,1.27
2022-11-20T21:13:51.517Z,1.30
2022-11-20T21:16:20.495Z,1.10
2022-11-20T21:18:48.229Z,1.10
2022-11-20T21:21:27.292Z,1.20
2022-11-20T21:23:54.935Z,2.00
2022-11-20T21:26:22.878Z,1.30
2022-11-20T21:28:50.688Z,1.30
2022-11-20T21:31:19.460Z,1.43
2022-11-20T21:33:47.868Z,1.23
2022-11-20T21:36:17.960Z,1.30
2022-11-20T21:38:45.787Z,1.30
2022-11-20T21:41:14.164Z,1.50
2022-11-20T21:43:42.569Z,1.10
2022-11-20T21:46:11.061Z,1.30
2022-11-20T21:48:40.032Z,1.37
2022-11-20T21:51:29.085Z,1.30
2022-11-20T21:53:56.842Z,1.40
2022-11-20T21:56:25.890Z,1.37
2022-11-20T21:58:54.745Z,1.30
2022-11-20T22:01:23.263Z,1.20
2022-11-20T22:03:51.545Z,1.20
2022-11-20T22:06:19.778Z,1.30
2022-11-20T22:08:48.973Z,1.37
2022-11-20T22:11:17.525Z,1.30
2022-11-20T22:13:55.400Z,1.30
2022-11-20T22:16:23.360Z,1.37
2022-11-20T22:18:51.805Z,1.20
2022-11-20T22:21:20.312Z,1.40
2022-11-20T22:23:49.471Z,1.20
2022-11-20T22:26:17.746Z,1.37
2022-11-20T22:28:47.541Z,1.13
2022-11-20T22:31:15.382Z,1.20
2022-11-20T22:33:42.943Z,1.50
2022-11-20T22:36:11.228Z,1.50
2022-11-20T22:38:39.725Z,1.30
2022-11-20T22:41:09.670Z,1.30
2022-11-20T22:43:37.657Z,1.60
2022-11-20T22:46:06.812Z,1.10
2022-11-20T22:48:35.025Z,1.30
2022-11-20T22:51:03.819Z,1.23
2022-11-20T22:53:31.633Z,1.27
2022-11-20T22:55:59.359Z,1.40
2022-11-20T22:58:30.057Z,1.27
2022-11-20T23:01:06.096Z,1.37
2022-11-20T23:03:33.838Z,1.70
2022-11-20T23:06:01.558Z,1.43
2022-11-20T23:08:29.690Z,1.40
2022-11-20T23:10:59.339Z,1.20
2022-11-20T23:13:27.202Z,1.20
2022-11-20T23:15:56.450Z,1.40
2022-11-20T23:18:24.126Z,1.40
2022-11-20T23:20:51.733Z,1.30
2022-11-20T23:23:19.315Z,1.30
2022-11-20T23:25:46.951Z,1.13
2022-11-20T23:28:14.538Z,1.63
2022-11-20T23:30:42.125Z,1.30
2022-11-20T23:33:11.183Z,1.40
2022-11-20T23:35:39.202Z,1.50
2022-11-20T23:38:06.894Z,1.50
2022-11-20T23:40:40.080Z,1.50
2022-11-20T23:43:16.060Z,1.50
2022-11-20T23:45:44.261Z,1.23
2022-11-20T23:48:13.592Z,1.63
2022-11-20T23:50:41.393Z,1.30
2022-11-20T23:53:09.585Z,1.40
2022-11-20T23:55:37.241Z,1.40
2022-11-20T23:58:05.507Z,1.20
